TAF Text Data
IDs:
Format:
Raw Decoded Include METAR

Data at: 0745 UTC 01 Aug 2021

KCHA 010520Z 0106/0206 VRB03KT P6SM SCT040
  TEMPO 0106/0109 4SM TSRA BR OVC025CB
  FM011200 21004KT P6SM VCSH OVC030
  FM011700 23003KT P6SM BKN040